To NAV CANADA Home Page Login to a new session Search on AWWS site Feedback and Comments Disclaimer Vers la page française équivalente Tips FAQ What's new on the site To the Forecasts and Observations / NOTAM section To "File a Flight Plan" website Publications and other links Update of the User's profile FIC Telephone Numbers My Weather Data Folder Route Weather Data Regional Weather Data Local Weather Data To the Forecasts and Observations / NOTAM section
Request Generated 09/25/2016 at 20:45:28 UTC . Weather information available at that time is displayed.

METAR/TAF

TALOYOAK/NU    

METAR CYYH 252000Z 17014KT 15SM -SHRA VCFG FEW007 FEW030 BKN050
BKN080 OVC090 05/05 A2984 RMK ST1SC2SC3AC2AC1 ST TR CIG RAG SLP109=
METAR CYYH 251900Z 16009KT 15SM -RA VCFG FEW004 SCT008 BKN012 BKN050
BKN070 06/05 A2986 RMK SF1ST3SC2SC2AC1 SF TR AC TR CLDS MOVG RPDLY
N CIG RAG SLP114=
SPECI CYYH 251823Z 16012G17KT 15SM -RA FEW009 BKN012 BKN025 BKN040
BKN080 07/04 A2986 RMK ST2SC3SC2SC1AC1 SC TR AC TR CLDS MOVG RPDLY
N SLP114=
METAR CYYH 251800Z 17012KT 15SM VCSH FEW009 SCT020 BKN040 BKN080
BKN090 06/04 A2986 RMK ST1SC3SC1AC2AC1 AC TR SLP117=

TAF CYYH 251738Z 2518/2606 17012KT P6SM SCT020 BKN040 TEMPO 2518/2521
P6SM -RA FEW008 BKN020 OVC040
FM252100 18015KT P6SM -RA SCT010 OVC025 TEMPO 2521/2606 4SM -RA
BR OVC010
RMK NXT FCST BY 260000Z=
Your time UTC time
Weather data provided by Environment Canada and NAV CANADA